Time,TemperatureF,DewpointF,PressureIn,WindDirection,WindDirectionDegrees,WindSpeedMPH,WindSpeedGustMPH,Humidity,HourlyPrecipIn,Conditions,Clouds,dailyrainin,SoftwareType,DateUTC
2013-02-15 00:02:00,35.0,29.0,30.20,NNE,17,0.0,-999.0,80,-99.99,,,-99.99,,2013-02-15 06:02:00,
2013-02-15 00:11:00,35.0,30.0,30.21,North,360,3.0,-999.0,81,-99.99,,,-99.99,,2013-02-15 06:11:00,
2013-02-15 00:21:00,35.0,30.0,30.21,North,360,3.0,-999.0,81,-99.99,,,-99.99,,2013-02-15 06:21:00,
2013-02-15 00:31:00,34.0,30.0,30.22,North,5,6.0,-999.0,85,-99.99,,,-99.99,,2013-02-15 06:31:00,
2013-02-15 00:42:00,34.0,30.0,30.22,North,5,6.0,-999.0,85,-99.99,,,-99.99,,2013-02-15 06:42:00,
2013-02-15 00:52:00,31.0,27.0,30.23,North,11,8.0,-999.0,86,-99.99,,,-99.99,,2013-02-15 06:52:00,
2013-02-15 01:01:00,30.0,27.0,30.24,North,11,6.0,-999.0,87,-99.99,,,-99.99,,2013-02-15 07:01:00,
2013-02-15 01:11:00,30.0,27.0,30.24,North,11,6.0,-999.0,87,-99.99,,,-99.99,,2013-02-15 07:11:00,
2013-02-15 01:21:00,30.0,26.0,30.26,North,11,7.0,-999.0,85,-99.99,,,-99.99,,2013-02-15 07:21:00,
2013-02-15 01:31:00,30.0,25.0,30.27,North,11,6.0,-999.0,81,-99.99,,,-99.99,,2013-02-15 07:31:00,
2013-02-15 01:42:00,30.0,25.0,30.27,North,11,6.0,-999.0,81,-99.99,,,-99.99,,2013-02-15 07:42:00,
2013-02-15 01:52:00,29.0,22.0,30.27,North,11,7.0,-999.0,76,-99.99,,,-99.99,,2013-02-15 07:52:00,
2013-02-15 02:01:00,28.0,20.0,30.28,North,11,7.0,-999.0,73,-99.99,,,-99.99,,2013-02-15 08:01:00,
2013-02-15 02:11:00,28.0,20.0,30.28,North,11,7.0,-999.0,73,-99.99,,,-99.99,,2013-02-15 08:11:00,
2013-02-15 02:21:00,28.0,20.0,30.29,North,11,3.0,-999.0,73,-99.99,,,-99.99,,2013-02-15 08:21:00,
2013-02-15 02:31:00,28.0,20.0,30.29,North,11,6.0,-999.0,70,-99.99,,,-99.99,,2013-02-15 08:31:00,
2013-02-15 02:42:00,28.0,20.0,30.29,North,11,6.0,-999.0,70,-99.99,,,-99.99,,2013-02-15 08:42:00,
2013-02-15 02:53:00,28.0,19.0,30.30,North,360,5.0,-999.0,68,-99.99,,,-99.99,,2013-02-15 08:53:00,
2013-02-15 03:01:00,27.0,18.0,30.31,North,360,1.0,-999.0,69,-99.99,,,-99.99,,2013-02-15 09:01:00,
2013-02-15 03:12:00,27.0,18.0,30.31,North,360,1.0,-999.0,69,-99.99,,,-99.99,,2013-02-15 09:12:00,
2013-02-15 03:21:00,26.0,18.0,30.32,North,360,0.0,-999.0,71,-99.99,,,-99.99,,2013-02-15 09:21:00,
2013-02-15 03:32:00,26.0,18.0,30.32,North,360,0.0,-999.0,71,-99.99,,,-99.99,,2013-02-15 09:32:00,
2013-02-15 03:42:00,26.0,18.0,30.32,North,360,0.0,-999.0,71,-99.99,,,-99.99,,2013-02-15 09:42:00,
2013-02-15 03:52:00,24.0,16.0,30.33,North,360,1.0,-999.0,72,-99.99,,,-99.99,,2013-02-15 09:52:00,
2013-02-15 04:01:00,23.0,15.0,30.33,North,355,4.0,-999.0,72,-99.99,,,-99.99,,2013-02-15 10:01:00,
2013-02-15 04:11:00,23.0,15.0,30.33,North,355,4.0,-999.0,72,-99.99,,,-99.99,,2013-02-15 10:11:00,
2013-02-15 04:21:00,22.0,14.0,30.34,North,355,0.0,-999.0,72,-99.99,,,-99.99,,2013-02-15 10:21:00,
2013-02-15 04:31:00,22.0,14.0,30.34,North,355,2.0,-999.0,72,-99.99,,,-99.99,,2013-02-15 10:31:00,
2013-02-15 04:41:00,22.0,14.0,30.34,North,355,2.0,-999.0,72,-99.99,,,-99.99,,2013-02-15 10:41:00,
2013-02-15 04:52:00,21.0,14.0,30.35,North,355,1.0,-999.0,73,-99.99,,,-99.99,,2013-02-15 10:52:00,
2013-02-15 05:01:00,20.0,13.0,30.36,North,355,0.0,-999.0,74,-99.99,,,-99.99,,2013-02-15 11:01:00,
2013-02-15 05:11:00,20.0,13.0,30.36,North,355,0.0,-999.0,74,-99.99,,,-99.99,,2013-02-15 11:11:00,
2013-02-15 05:22:00,20.0,14.0,30.37,North,355,0.0,-999.0,77,-99.99,,,-99.99,,2013-02-15 11:22:00,
2013-02-15 05:32:00,19.0,14.0,30.37,North,355,0.0,-999.0,79,-99.99,,,-99.99,,2013-02-15 11:32:00,
2013-02-15 05:42:00,19.0,14.0,30.37,North,355,0.0,-999.0,79,-99.99,,,-99.99,,2013-02-15 11:42:00,
2013-02-15 05:52:00,18.0,13.0,30.37,North,355,0.0,-999.0,81,-99.99,,,-99.99,,2013-02-15 11:52:00,
2013-02-15 06:01:00,18.0,13.0,30.37,North,355,0.0,-999.0,82,-99.99,,,-99.99,,2013-02-15 12:01:00,
2013-02-15 06:11:00,18.0,13.0,30.37,North,355,0.0,-999.0,82,-99.99,,,-99.99,,2013-02-15 12:11:00,
2013-02-15 06:21:00,17.0,13.0,30.38,North,355,0.0,-999.0,83,-99.99,,,-99.99,,2013-02-15 12:21:00,
2013-02-15 06:32:00,17.0,13.0,30.38,North,355,0.0,-999.0,83,-99.99,,,-99.99,,2013-02-15 12:32:00,
2013-02-15 06:42:00,17.0,13.0,30.38,North,355,0.0,-999.0,83,-99.99,,,-99.99,,2013-02-15 12:42:00,
2013-02-15 06:52:00,16.0,12.0,30.39,North,355,0.0,-999.0,84,-99.99,,,-99.99,,2013-02-15 12:52:00,
2013-02-15 07:02:00,16.0,12.0,30.39,North,355,0.0,-999.0,84,-99.99,,,-99.99,,2013-02-15 13:02:00,
2013-02-15 07:11:00,16.0,12.0,30.39,North,355,0.0,-999.0,84,-99.99,,,-99.99,,2013-02-15 13:11:00,
2013-02-15 07:21:00,16.0,12.0,30.39,North,355,0.0,-999.0,85,-99.99,,,-99.99,,2013-02-15 13:21:00,
2013-02-15 07:32:00,15.0,11.0,30.40,North,355,0.0,-999.0,85,-99.99,,,-99.99,,2013-02-15 13:32:00,
2013-02-15 07:41:00,15.0,11.0,30.40,North,355,0.0,-999.0,85,-99.99,,,-99.99,,2013-02-15 13:41:00,
2013-02-15 07:52:00,15.0,11.0,30.40,North,355,0.0,-999.0,85,-99.99,,,-99.99,,2013-02-15 13:52:00,
2013-02-15 08:01:00,16.0,12.0,30.41,North,355,0.0,-999.0,85,-99.99,,,-99.99,,2013-02-15 14:01:00,
2013-02-15 08:11:00,16.0,12.0,30.41,North,355,0.0,-999.0,85,-99.99,,,-99.99,,2013-02-15 14:11:00,
2013-02-15 08:21:00,16.0,12.0,30.41,North,355,0.0,-999.0,85,-99.99,,,-99.99,,2013-02-15 14:21:00,
2013-02-15 08:32:00,17.0,13.0,30.42,North,355,1.0,-999.0,84,-99.99,,,-99.99,,2013-02-15 14:32:00,
2013-02-15 08:41:00,17.0,13.0,30.42,North,355,1.0,-999.0,84,-99.99,,,-99.99,,2013-02-15 14:41:00,
2013-02-15 08:52:00,19.0,15.0,30.42,North,355,0.0,-999.0,84,-99.99,,,-99.99,,2013-02-15 14:52:00,
2013-02-15 09:01:00,21.0,16.0,30.43,North,355,0.0,-999.0,81,-99.99,,,-99.99,,2013-02-15 15:01:00,
2013-02-15 09:11:00,21.0,16.0,30.43,North,355,0.0,-999.0,81,-99.99,,,-99.99,,2013-02-15 15:11:00,
2013-02-15 09:21:00,22.0,16.0,30.44,North,355,1.0,-999.0,78,-99.99,,,-99.99,,2013-02-15 15:21:00,
2013-02-15 09:32:00,23.0,16.0,30.43,North,355,3.0,-999.0,74,-99.99,,,-99.99,,2013-02-15 15:32:00,
2013-02-15 09:42:00,23.0,16.0,30.43,North,355,3.0,-999.0,74,-99.99,,,-99.99,,2013-02-15 15:42:00,
2013-02-15 09:52:00,24.0,16.0,30.42,North,355,0.0,-999.0,71,-99.99,,,-99.99,,2013-02-15 15:52:00,
2013-02-15 10:01:00,25.0,17.0,30.43,North,355,0.0,-999.0,71,-99.99,,,-99.99,,2013-02-15 16:01:00,
2013-02-15 10:11:00,25.0,17.0,30.43,North,355,0.0,-999.0,71,-99.99,,,-99.99,,2013-02-15 16:11:00,
2013-02-15 10:22:00,26.0,16.0,30.42,North,355,0.0,-999.0,66,-99.99,,,-99.99,,2013-02-15 16:22:00,
2013-02-15 10:32:00,27.0,17.0,30.43,North,355,0.0,-999.0,65,-99.99,,,-99.99,,2013-02-15 16:32:00,
2013-02-15 10:42:00,27.0,17.0,30.43,North,355,0.0,-999.0,65,-99.99,,,-99.99,,2013-02-15 16:42:00,
2013-02-15 10:52:00,26.0,15.0,30.42,North,355,0.0,-999.0,62,-99.99,,,-99.99,,2013-02-15 16:52:00,
2013-02-15 11:01:00,28.0,17.0,30.42,SSW,196,1.0,-999.0,62,-99.99,,,-99.99,,2013-02-15 17:01:00,
2013-02-15 11:11:00,28.0,16.0,30.42,NNW,338,2.0,-999.0,61,-99.99,,,-99.99,,2013-02-15 17:11:00,
2013-02-15 11:21:00,28.0,16.0,30.42,NNW,338,2.0,-999.0,61,-99.99,,,-99.99,,2013-02-15 17:21:00,
2013-02-15 11:32:00,30.0,19.0,30.42,NNE,19,1.0,-999.0,63,-99.99,,,-99.99,,2013-02-15 17:32:00,
2013-02-15 11:42:00,30.0,19.0,30.42,NNE,19,1.0,-999.0,63,-99.99,,,-99.99,,2013-02-15 17:42:00,
2013-02-15 11:52:00,32.0,20.0,30.41,North,5,2.0,-999.0,62,-99.99,,,-99.99,,2013-02-15 17:52:00,
2013-02-15 12:01:00,33.0,22.0,30.41,North,360,3.0,-999.0,63,-99.99,,,-99.99,,2013-02-15 18:01:00,
2013-02-15 12:21:00,32.0,20.0,30.40,North,360,3.0,-999.0,61,-99.99,,,-99.99,,2013-02-15 18:21:00,
2013-02-15 12:31:00,33.0,21.0,30.40,NNE,18,5.0,-999.0,60,-99.99,,,-99.99,,2013-02-15 18:31:00,
2013-02-15 12:52:00,33.0,20.0,30.39,North,355,3.0,-999.0,58,-99.99,,,-99.99,,2013-02-15 18:52:00,
2013-02-15 13:01:00,35.0,22.0,30.38,North,5,3.0,-999.0,58,-99.99,,,-99.99,,2013-02-15 19:01:00,
2013-02-15 13:22:00,35.0,21.0,30.37,NNW,348,2.0,-999.0,56,-99.99,,,-99.99,,2013-02-15 19:22:00,
2013-02-15 13:32:00,36.0,20.0,30.36,North,5,4.0,-999.0,52,-99.99,,,-99.99,,2013-02-15 19:32:00,
2013-02-15 13:41:00,36.0,20.0,30.36,North,5,4.0,-999.0,52,-99.99,,,-99.99,,2013-02-15 19:41:00,
2013-02-15 13:52:00,36.0,19.0,30.36,NE,41,1.0,-999.0,50,-99.99,,,-99.99,,2013-02-15 19:52:00,
2013-02-15 14:01:00,36.0,19.0,30.35,North,355,2.0,-999.0,49,-99.99,,,-99.99,,2013-02-15 20:01:00,
2013-02-15 14:11:00,36.0,19.0,30.35,North,355,2.0,-999.0,49,-99.99,,,-99.99,,2013-02-15 20:11:00,
2013-02-15 14:21:00,37.0,19.0,30.35,NNE,18,3.0,-999.0,48,-99.99,,,-99.99,,2013-02-15 20:21:00,
2013-02-15 14:32:00,37.0,19.0,30.35,North,5,3.0,-999.0,48,-99.99,,,-99.99,,2013-02-15 20:32:00,
2013-02-15 14:42:00,37.0,19.0,30.35,North,5,3.0,-999.0,48,-99.99,,,-99.99,,2013-02-15 20:42:00,
2013-02-15 14:52:00,37.0,18.0,30.35,North,10,2.0,-999.0,46,-99.99,,,-99.99,,2013-02-15 20:52:00,
2013-02-15 15:01:00,36.0,18.0,30.35,NNW,344,2.0,-999.0,47,-99.99,,,-99.99,,2013-02-15 21:01:00,
2013-02-15 15:11:00,36.0,18.0,30.35,NNW,344,2.0,-999.0,47,-99.99,,,-99.99,,2013-02-15 21:11:00,
2013-02-15 15:21:00,36.0,18.0,30.35,NNW,346,1.0,-999.0,48,-99.99,,,-99.99,,2013-02-15 21:21:00,
2013-02-15 15:31:00,35.0,17.0,30.35,NNW,348,2.0,-999.0,48,-99.99,,,-99.99,,2013-02-15 21:31:00,
2013-02-15 15:42:00,35.0,17.0,30.35,NNW,348,2.0,-999.0,48,-99.99,,,-99.99,,2013-02-15 21:42:00,
2013-02-15 15:52:00,35.0,18.0,30.35,NNW,348,1.0,-999.0,50,-99.99,,,-99.99,,2013-02-15 21:52:00,
2013-02-15 16:02:00,36.0,19.0,30.35,NW,306,0.0,-999.0,49,-99.99,,,-99.99,,2013-02-15 22:02:00,
2013-02-15 16:11:00,36.0,19.0,30.35,NW,306,0.0,-999.0,49,-99.99,,,-99.99,,2013-02-15 22:11:00,
2013-02-15 16:21:00,36.0,18.0,30.35,NW,316,0.0,-999.0,48,-99.99,,,-99.99,,2013-02-15 22:21:00,
2013-02-15 16:31:00,36.0,19.0,30.34,NNW,338,1.0,-999.0,50,-99.99,,,-99.99,,2013-02-15 22:31:00,
2013-02-15 16:41:00,36.0,19.0,30.34,NNW,338,1.0,-999.0,50,-99.99,,,-99.99,,2013-02-15 22:41:00,
2013-02-15 16:52:00,37.0,19.0,30.34,NNW,338,0.0,-999.0,48,-99.99,,,-99.99,,2013-02-15 22:52:00,
2013-02-15 17:02:00,36.0,18.0,30.34,NNW,346,1.0,-999.0,47,-99.99,,,-99.99,,2013-02-15 23:02:00,
2013-02-15 17:11:00,36.0,18.0,30.34,NNW,346,1.0,-999.0,47,-99.99,,,-99.99,,2013-02-15 23:11:00,
2013-02-15 17:21:00,35.0,18.0,30.34,NNW,346,0.0,-999.0,50,-99.99,,,-99.99,,2013-02-15 23:21:00,
2013-02-15 17:31:00,34.0,18.0,30.33,NNW,346,0.0,-999.0,52,-99.99,,,-99.99,,2013-02-15 23:31:00,
2013-02-15 17:42:00,34.0,18.0,30.33,NNW,346,0.0,-999.0,52,-99.99,,,-99.99,,2013-02-15 23:42:00,
2013-02-15 17:52:00,33.0,18.0,30.34,NNW,346,0.0,-999.0,54,-99.99,,,-99.99,,2013-02-15 23:52:00,
2013-02-15 18:02:00,32.0,18.0,30.33,NNW,346,0.0,-999.0,55,-99.99,,,-99.99,,2013-02-16 00:02:00,
2013-02-15 18:11:00,32.0,18.0,30.33,NNW,346,0.0,-999.0,55,-99.99,,,-99.99,,2013-02-16 00:11:00,
2013-02-15 18:21:00,30.0,17.0,30.33,NNW,346,0.0,-999.0,58,-99.99,,,-99.99,,2013-02-16 00:21:00,
2013-02-15 18:32:00,29.0,17.0,30.33,NNW,346,0.0,-999.0,60,-99.99,,,-99.99,,2013-02-16 00:32:00,
2013-02-15 18:41:00,29.0,17.0,30.33,NNW,346,0.0,-999.0,60,-99.99,,,-99.99,,2013-02-16 00:41:00,
2013-02-15 18:52:00,28.0,17.0,30.33,NNW,346,0.0,-999.0,62,-99.99,,,-99.99,,2013-02-16 00:52:00,
2013-02-15 19:02:00,28.0,17.0,30.33,NNW,346,0.0,-999.0,62,-99.99,,,-99.99,,2013-02-16 01:02:00,
2013-02-15 19:11:00,28.0,17.0,30.33,NNW,346,0.0,-999.0,62,-99.99,,,-99.99,,2013-02-16 01:11:00,
2013-02-15 19:21:00,29.0,19.0,30.33,NNW,346,0.0,-999.0,65,-99.99,,,-99.99,,2013-02-16 01:21:00,
2013-02-15 19:31:00,29.0,19.0,30.34,NNW,346,0.0,-999.0,65,-99.99,,,-99.99,,2013-02-16 01:31:00,
2013-02-15 19:42:00,29.0,19.0,30.34,NNW,346,0.0,-999.0,65,-99.99,,,-99.99,,2013-02-16 01:42:00,
2013-02-15 19:52:00,29.0,19.0,30.34,NNW,346,0.0,-999.0,65,-99.99,,,-99.99,,2013-02-16 01:52:00,
2013-02-15 20:01:00,29.0,19.0,30.35,NNW,346,0.0,-999.0,65,-99.99,,,-99.99,,2013-02-16 02:01:00,
2013-02-15 20:11:00,29.0,19.0,30.35,NNW,346,0.0,-999.0,65,-99.99,,,-99.99,,2013-02-16 02:11:00,
2013-02-15 20:21:00,29.0,19.0,30.35,NNW,346,0.0,-999.0,65,-99.99,,,-99.99,,2013-02-16 02:21:00,
2013-02-15 20:31:00,30.0,19.0,30.35,NNW,346,0.0,-999.0,64,-99.99,,,-99.99,,2013-02-16 02:31:00,
2013-02-15 20:42:00,30.0,19.0,30.35,NNW,346,0.0,-999.0,64,-99.99,,,-99.99,,2013-02-16 02:42:00,
2013-02-15 20:52:00,29.0,19.0,30.35,NNW,346,0.0,-999.0,66,-99.99,,,-99.99,,2013-02-16 02:52:00,
2013-02-15 21:01:00,29.0,20.0,30.35,NNW,346,0.0,-999.0,69,-99.99,,,-99.99,,2013-02-16 03:01:00,
2013-02-15 21:11:00,29.0,20.0,30.35,NNW,346,0.0,-999.0,69,-99.99,,,-99.99,,2013-02-16 03:11:00,
2013-02-15 21:21:00,29.0,21.0,30.35,NNW,346,0.0,-999.0,71,-99.99,,,-99.99,,2013-02-16 03:21:00,
2013-02-15 21:32:00,29.0,21.0,30.36,NNW,346,0.0,-999.0,72,-99.99,,,-99.99,,2013-02-16 03:32:00,
2013-02-15 21:41:00,29.0,21.0,30.36,NNW,346,0.0,-999.0,72,-99.99,,,-99.99,,2013-02-16 03:41:00,
2013-02-15 21:52:00,29.0,22.0,30.36,NNW,346,0.0,-999.0,76,-99.99,,,-99.99,,2013-02-16 03:52:00,
2013-02-15 22:01:00,28.0,23.0,30.37,NNW,346,0.0,-999.0,80,-99.99,,,-99.99,,2013-02-16 04:01:00,
2013-02-15 22:11:00,28.0,23.0,30.37,NNW,346,0.0,-999.0,80,-99.99,,,-99.99,,2013-02-16 04:11:00,
2013-02-15 22:21:00,27.0,23.0,30.36,NNW,346,0.0,-999.0,83,-99.99,,,-99.99,,2013-02-16 04:21:00,
2013-02-15 22:32:00,27.0,23.0,30.36,NNW,346,0.0,-999.0,84,-99.99,,,-99.99,,2013-02-16 04:32:00,
2013-02-15 22:41:00,27.0,23.0,30.36,NNW,346,0.0,-999.0,84,-99.99,,,-99.99,,2013-02-16 04:41:00,
2013-02-15 22:52:00,26.0,22.0,30.36,NNW,346,0.0,-999.0,85,-99.99,,,-99.99,,2013-02-16 04:52:00,
2013-02-15 23:01:00,26.0,22.0,30.36,NNW,346,0.0,-999.0,86,-99.99,,,-99.99,,2013-02-16 05:01:00,
2013-02-15 23:12:00,26.0,22.0,30.36,NNW,346,0.0,-999.0,86,-99.99,,,-99.99,,2013-02-16 05:12:00,
2013-02-15 23:22:00,26.0,22.0,30.36,NNW,346,0.0,-999.0,86,-99.99,,,-99.99,,2013-02-16 05:22:00,
2013-02-15 23:32:00,25.0,22.0,30.37,NNW,346,0.0,-999.0,87,-99.99,,,-99.99,,2013-02-16 05:32:00,
2013-02-15 23:42:00,25.0,22.0,30.37,NNW,346,0.0,-999.0,87,-99.99,,,-99.99,,2013-02-16 05:42:00,
2013-02-15 23:52:00,26.0,23.0,30.37,NNW,346,0.0,-999.0,88,-99.99,,,-99.99,,2013-02-16 05:52:00,